createdAt,value
2018-08-23T00:01:26.976Z,19.40
2018-08-23T00:06:24.319Z,19.50
2018-08-23T00:08:52.666Z,19.40
2018-08-23T00:11:23.842Z,19.50
2018-08-23T00:13:52.092Z,19.50
2018-08-23T00:16:33.956Z,19.60
2018-08-23T00:19:03.188Z,19.80
2018-08-23T00:21:31.389Z,19.80
2018-08-23T00:24:05.964Z,19.80
2018-08-23T00:31:33.490Z,19.60
2018-08-23T00:34:01.637Z,19.50
2018-08-23T00:36:29.808Z,19.50
2018-08-23T00:38:57.981Z,19.50
2018-08-23T00:41:26.338Z,19.60
2018-08-23T00:43:55.059Z,19.50
2018-08-23T00:48:51.208Z,19.60
2018-08-23T00:51:20.139Z,19.70
2018-08-23T00:53:53.480Z,19.60
2018-08-23T00:56:22.585Z,19.40
2018-08-23T00:58:54.684Z,19.40
2018-08-23T01:01:22.821Z,19.40
2018-08-23T01:03:50.972Z,19.30
2018-08-23T01:06:21.526Z,19.30
2018-08-23T01:08:49.679Z,19.40
2018-08-23T01:13:45.889Z,19.30
2018-08-23T01:16:14.737Z,19.30
2018-08-23T01:21:11.380Z,19.20
2018-08-23T01:23:39.981Z,19.20
2018-08-23T01:28:36.843Z,19.10
2018-08-23T01:31:24.870Z,19.00
2018-08-23T01:33:55.400Z,19.00
2018-08-23T01:36:29.069Z,18.90
2018-08-23T01:38:57.241Z,18.90
2018-08-23T01:41:25.397Z,18.90
2018-08-23T01:43:53.553Z,18.70
2018-08-23T01:46:25.448Z,18.80
2018-08-23T01:48:53.961Z,18.70
2018-08-23T01:51:22.169Z,18.60
2018-08-23T01:53:50.386Z,18.60
2018-08-23T01:56:18.701Z,18.60
2018-08-23T01:58:46.850Z,18.70
2018-08-23T02:01:17.173Z,18.60
2018-08-23T02:03:45.460Z,18.60
2018-08-23T02:06:13.622Z,18.70
2018-08-23T02:11:11.010Z,18.60
2018-08-23T02:13:39.190Z,18.60
2018-08-23T02:16:07.357Z,18.60
2018-08-23T02:18:35.517Z,18.50
2018-08-23T02:21:07.937Z,18.60
2018-08-23T02:23:42.276Z,18.50
2018-08-23T02:26:10.463Z,18.60
2018-08-23T02:28:38.634Z,18.50
2018-08-23T02:33:34.708Z,18.80
2018-08-23T02:36:08.669Z,18.80
2018-08-23T02:38:36.839Z,18.80
2018-08-23T02:41:05.069Z,18.70
2018-08-23T02:43:33.220Z,18.70
2018-08-23T02:46:02.494Z,18.50
2018-08-23T02:48:30.657Z,18.40
2018-08-23T02:50:58.801Z,18.60
2018-08-23T02:56:04.916Z,18.50
2018-08-23T02:58:33.069Z,18.40
2018-08-23T03:01:04.439Z,18.30
2018-08-23T03:03:33.403Z,18.40
2018-08-23T03:06:01.542Z,18.30
2018-08-23T03:08:41.345Z,18.40
2018-08-23T03:11:09.513Z,18.40
2018-08-23T03:13:43.985Z,18.40
2018-08-23T03:16:12.568Z,18.30
2018-08-23T03:18:40.706Z,18.50
2018-08-23T03:21:08.896Z,18.40
2018-08-23T03:23:37.029Z,18.20
2018-08-23T03:26:05.196Z,18.20
2018-08-23T03:28:34.430Z,17.90
2018-08-23T03:31:03.546Z,18.10
2018-08-23T03:33:33.261Z,18.00
2018-08-23T03:36:01.417Z,18.00
2018-08-23T03:38:29.573Z,18.10
2018-08-23T03:40:57.769Z,18.10
2018-08-23T03:43:25.921Z,17.90
2018-08-23T03:45:57.167Z,17.80
2018-08-23T03:48:25.363Z,17.80
2018-08-23T03:50:53.961Z,17.90
2018-08-23T03:56:06.172Z,17.70
2018-08-23T04:01:03.555Z,17.60
2018-08-23T04:06:15.042Z,17.60
2018-08-23T04:08:43.489Z,17.70
2018-08-23T04:11:11.666Z,17.80
2018-08-23T04:13:39.830Z,17.80
2018-08-23T04:16:08.001Z,17.70
2018-08-23T04:18:36.156Z,17.50
2018-08-23T04:21:04.294Z,17.60
2018-08-23T04:23:33.087Z,17.70
2018-08-23T04:26:01.254Z,17.60
2018-08-23T04:28:29.419Z,17.70
2018-08-23T04:30:57.585Z,17.70
2018-08-23T04:33:25.788Z,17.60
2018-08-23T04:35:54.027Z,17.60
2018-08-23T04:38:22.198Z,17.40
2018-08-23T04:40:55.718Z,17.60
2018-08-23T04:43:23.986Z,17.70
2018-08-23T04:45:52.061Z,17.70
2018-08-23T04:48:20.241Z,17.70
2018-08-23T04:50:48.412Z,17.60
2018-08-23T04:58:12.421Z,17.70
2018-08-23T05:00:40.605Z,18.00
2018-08-23T05:03:08.761Z,17.80
2018-08-23T05:05:36.918Z,18.00
2018-08-23T05:08:05.208Z,17.90
2018-08-23T05:10:33.364Z,17.80
2018-08-23T05:17:57.570Z,17.90
2018-08-23T05:20:25.750Z,17.80
2018-08-23T05:22:59.446Z,17.90
2018-08-23T05:25:27.590Z,17.90
2018-08-23T05:28:15.395Z,17.70
2018-08-23T05:30:44.456Z,17.90
2018-08-23T05:33:17.780Z,18.00
2018-08-23T05:35:46.001Z,18.20
2018-08-23T05:38:14.841Z,18.30
2018-08-23T05:43:16.822Z,18.70
2018-08-23T05:46:02.606Z,18.60
2018-08-23T05:51:09.589Z,19.20
2018-08-23T05:53:40.812Z,19.20
2018-08-23T05:56:09.139Z,19.20
2018-08-23T05:58:37.391Z,19.10
2018-08-23T06:01:05.536Z,19.20
2018-08-23T06:03:33.720Z,19.20
2018-08-23T06:06:03.013Z,19.10
2018-08-23T06:08:31.377Z,19.10
2018-08-23T06:11:05.698Z,19.20
2018-08-23T06:13:33.880Z,19.20
2018-08-23T06:16:02.057Z,19.20
2018-08-23T06:18:30.246Z,19.20
2018-08-23T06:20:58.388Z,19.40
2018-08-23T06:26:00.185Z,19.90
2018-08-23T06:28:28.354Z,20.20
2018-08-23T06:30:57.668Z,21.10
2018-08-23T06:33:37.385Z,21.60
2018-08-23T06:36:06.053Z,24.00
2018-08-23T06:38:35.134Z,23.80
2018-08-23T06:41:05.617Z,22.90
2018-08-23T06:43:34.405Z,22.20
2018-08-23T06:46:03.170Z,22.20
2018-08-23T06:48:31.569Z,21.30
2018-08-23T06:51:00.738Z,21.20
2018-08-23T06:53:46.332Z,20.90
2018-08-23T06:56:15.251Z,20.90
2018-08-23T06:58:43.436Z,20.90
2018-08-23T07:01:26.981Z,20.80
2018-08-23T07:04:00.521Z,20.90
2018-08-23T07:06:28.708Z,21.10
2018-08-23T07:08:56.894Z,21.00
2018-08-23T07:11:25.058Z,21.30
2018-08-23T07:13:58.564Z,21.40
2018-08-23T07:16:27.044Z,21.30
2018-08-23T07:18:55.629Z,21.40
2018-08-23T07:21:23.838Z,21.00
2018-08-23T07:23:52.021Z,21.40
2018-08-23T07:26:20.269Z,21.40
2018-08-23T07:28:48.382Z,21.50
2018-08-23T07:31:16.545Z,21.40
2018-08-23T07:33:47.709Z,21.30
2018-08-23T07:41:18.044Z,21.70
2018-08-23T07:43:46.202Z,21.90
2018-08-23T07:46:14.452Z,21.90
2018-08-23T07:48:42.765Z,21.90
2018-08-23T07:51:18.569Z,22.20
2018-08-23T07:53:46.668Z,22.20
2018-08-23T07:56:19.269Z,22.50
2018-08-23T07:58:48.490Z,22.60
2018-08-23T08:01:16.660Z,23.00
2018-08-23T08:03:44.854Z,23.50
2018-08-23T08:06:17.719Z,23.70
2018-08-23T08:08:45.861Z,23.70
2018-08-23T08:11:14.053Z,23.60
2018-08-23T08:13:42.218Z,24.10
2018-08-23T08:16:15.053Z,24.40
2018-08-23T08:21:15.807Z,24.80
2018-08-23T08:23:44.470Z,24.80
2018-08-23T08:26:12.631Z,25.20
2018-08-23T08:28:40.806Z,25.20
2018-08-23T08:31:08.985Z,25.20
2018-08-23T08:33:38.109Z,25.60
2018-08-23T08:38:35.469Z,25.70
2018-08-23T08:41:03.652Z,25.60
2018-08-23T08:43:31.837Z,25.70
2018-08-23T08:46:00.572Z,25.90
2018-08-23T08:48:31.627Z,26.10
2018-08-23T08:51:21.514Z,25.80
2018-08-23T08:53:49.721Z,26.10
2018-08-23T08:56:22.669Z,25.40
2018-08-23T08:58:51.017Z,25.80
2018-08-23T09:01:20.068Z,26.40
2018-08-23T09:03:48.288Z,26.70
2018-08-23T09:06:23.988Z,27.20
2018-08-23T09:08:52.166Z,26.30
2018-08-23T09:11:22.483Z,26.00
2018-08-23T09:21:24.289Z,25.60
2018-08-23T09:23:52.462Z,26.00
2018-08-23T09:26:22.880Z,25.50
2018-08-23T09:28:51.064Z,25.50
2018-08-23T09:31:19.233Z,25.50
2018-08-23T09:33:47.414Z,25.50
2018-08-23T09:36:15.561Z,25.60
2018-08-23T09:46:07.499Z,26.30
2018-08-23T09:48:35.659Z,26.50
2018-08-23T09:51:16.194Z,26.80
2018-08-23T09:53:44.620Z,28.00
2018-08-23T09:56:44.505Z,27.70
2018-08-23T09:59:12.617Z,28.10
2018-08-23T10:01:46.097Z,28.00
2018-08-23T10:06:55.963Z,27.10
2018-08-23T10:09:26.196Z,27.30
2018-08-23T10:11:59.736Z,27.50
2018-08-23T10:14:36.660Z,27.50
2018-08-23T10:17:10.516Z,27.50
2018-08-23T10:19:44.048Z,27.70
2018-08-23T10:22:22.488Z,27.70
2018-08-23T10:24:50.850Z,28.30
2018-08-23T10:27:21.319Z,28.50
2018-08-23T10:29:49.485Z,27.70
2018-08-23T10:32:17.756Z,30.20
2018-08-23T10:34:46.202Z,30.80
2018-08-23T10:37:14.373Z,30.90
2018-08-23T10:42:16.444Z,31.70
2018-08-23T10:44:44.705Z,32.10
2018-08-23T10:49:45.066Z,31.80
2018-08-23T10:52:13.227Z,30.70
2018-08-23T10:54:41.399Z,30.70
2018-08-23T10:57:13.802Z,30.00
2018-08-23T11:02:09.881Z,31.00
2018-08-23T11:04:38.042Z,30.20
2018-08-23T11:07:06.193Z,29.40
2018-08-23T11:09:39.909Z,30.00
2018-08-23T11:14:40.461Z,29.60
2018-08-23T11:19:47.586Z,29.50
2018-08-23T11:22:15.751Z,30.10
2018-08-23T11:24:43.909Z,30.90
2018-08-23T11:27:12.048Z,30.80
2018-08-23T11:29:40.325Z,30.90
2018-08-23T11:34:36.277Z,31.30
2018-08-23T11:37:04.395Z,32.10
2018-08-23T11:39:32.543Z,32.10
2018-08-23T11:51:52.684Z,32.90
2018-08-23T11:54:20.877Z,32.60
2018-08-23T11:56:49.028Z,32.60
2018-08-23T11:59:17.215Z,33.20
2018-08-23T12:01:45.355Z,32.50
2018-08-23T12:04:13.488Z,32.10
2018-08-23T12:09:09.578Z,31.90
2018-08-23T12:11:37.794Z,31.80
2018-08-23T12:14:05.965Z,31.10
2018-08-23T12:16:34.142Z,31.00
2018-08-23T12:19:02.306Z,30.90
2018-08-23T12:21:30.477Z,30.40
2018-08-23T12:34:07.721Z,30.00
2018-08-23T12:36:41.240Z,30.10
2018-08-23T12:39:15.000Z,29.90
2018-08-23T12:41:48.691Z,29.80
2018-08-23T12:44:17.422Z,29.70
2018-08-23T12:46:45.659Z,29.60
2018-08-23T12:49:13.832Z,29.50
2018-08-23T12:51:41.970Z,29.40
2018-08-23T12:54:10.127Z,29.00
2018-08-23T12:56:38.263Z,28.60
2018-08-23T12:59:06.422Z,27.40
2018-08-23T13:01:34.661Z,26.30
2018-08-23T13:04:02.887Z,26.20
2018-08-23T13:08:58.850Z,23.60
2018-08-23T13:11:27.011Z,23.90
2018-08-23T13:13:55.181Z,23.30
2018-08-23T13:16:23.361Z,23.70
2018-08-23T13:18:51.533Z,23.20
2018-08-23T13:21:19.706Z,22.80
2018-08-23T13:23:47.843Z,22.80
2018-08-23T13:26:16.029Z,22.70
2018-08-23T13:28:44.715Z,23.10
2018-08-23T13:31:12.986Z,23.10
2018-08-23T13:33:41.187Z,23.00
2018-08-23T13:36:09.361Z,23.10
2018-08-23T13:38:37.503Z,23.10
2018-08-23T13:41:05.657Z,23.10
2018-08-23T13:43:34.141Z,23.00
2018-08-23T13:46:02.235Z,22.90
2018-08-23T13:48:30.507Z,22.90
2018-08-23T13:50:58.585Z,22.50
2018-08-23T13:53:26.769Z,22.40
2018-08-23T13:58:22.922Z,22.40
2018-08-23T14:00:51.101Z,22.30
2018-08-23T14:10:43.066Z,21.60
2018-08-23T14:13:11.238Z,21.80
2018-08-23T14:18:12.813Z,21.60
2018-08-23T14:20:40.961Z,21.50
2018-08-23T14:23:09.145Z,21.60
2018-08-23T14:25:37.324Z,21.70
2018-08-23T14:28:06.035Z,21.80
2018-08-23T14:30:34.229Z,21.70
2018-08-23T14:33:02.441Z,21.20
2018-08-23T14:37:58.465Z,21.10
2018-08-23T14:42:54.700Z,20.50
2018-08-23T14:45:28.560Z,20.80
2018-08-23T14:48:02.174Z,20.40
2018-08-23T14:50:30.758Z,21.50
2018-08-23T14:58:00.605Z,21.60
2018-08-23T15:00:28.871Z,21.40
2018-08-23T15:02:57.101Z,21.50
2018-08-23T15:05:25.271Z,21.60
2018-08-23T15:07:53.617Z,21.50
2018-08-23T15:10:21.768Z,21.30
2018-08-23T15:12:51.252Z,21.30
2018-08-23T15:15:23.654Z,21.20
2018-08-23T15:17:52.552Z,21.80
2018-08-23T15:20:20.803Z,21.50
2018-08-23T15:25:16.945Z,21.70
2018-08-23T15:30:14.886Z,21.40
2018-08-23T15:32:43.148Z,21.10
2018-08-23T15:35:11.315Z,21.40
2018-08-23T15:37:39.468Z,21.50
2018-08-23T15:42:35.573Z,21.40
2018-08-23T15:45:03.734Z,21.40
2018-08-23T15:47:31.864Z,21.30
2018-08-23T15:50:00.039Z,21.70
2018-08-23T15:54:56.125Z,21.60
2018-08-23T15:57:24.259Z,21.70
2018-08-23T15:59:52.413Z,21.50
2018-08-23T16:02:20.561Z,21.60
2018-08-23T16:04:48.694Z,21.70
2018-08-23T16:07:16.861Z,21.40
2018-08-23T16:09:45.195Z,21.40
2018-08-23T16:12:13.332Z,21.50
2018-08-23T16:14:41.502Z,21.60
2018-08-23T16:17:15.022Z,21.30
2018-08-23T16:19:48.686Z,21.80
2018-08-23T16:27:12.713Z,21.40
2018-08-23T16:29:45.114Z,21.40
2018-08-23T16:34:45.521Z,21.40
2018-08-23T16:37:13.688Z,21.30
2018-08-23T16:39:42.319Z,21.50
2018-08-23T16:42:10.785Z,22.30
2018-08-23T16:44:39.176Z,22.00
2018-08-23T16:47:08.077Z,21.80
2018-08-23T16:49:36.339Z,21.90
2018-08-23T16:52:04.487Z,22.10
2018-08-23T16:54:32.645Z,22.00
2018-08-23T16:57:00.807Z,22.10
2018-08-23T16:59:29.165Z,22.10
2018-08-23T17:01:57.554Z,21.70
2018-08-23T17:06:59.177Z,22.00
2018-08-23T17:09:27.362Z,22.10
2018-08-23T17:11:55.549Z,22.10
2018-08-23T17:14:23.781Z,22.30
2018-08-23T17:16:57.358Z,22.20
2018-08-23T17:19:25.523Z,22.20
2018-08-23T17:21:53.678Z,22.50
2018-08-23T17:24:21.927Z,22.50
2018-08-23T17:26:50.010Z,22.60
2018-08-23T17:29:18.179Z,22.40
2018-08-23T17:31:46.357Z,22.10
2018-08-23T17:34:14.512Z,21.90
2018-08-23T17:36:43.175Z,21.90
2018-08-23T17:39:11.502Z,21.70
2018-08-23T17:41:39.931Z,21.90
2018-08-23T17:44:08.440Z,21.90
2018-08-23T17:46:36.648Z,21.90
2018-08-23T17:49:05.034Z,21.60
2018-08-23T17:51:33.447Z,21.60
2018-08-23T17:54:01.855Z,21.50
2018-08-23T17:56:30.199Z,21.80
2018-08-23T17:58:58.556Z,21.30
2018-08-23T18:06:23.238Z,21.70
2018-08-23T18:08:51.686Z,22.00
2018-08-23T18:11:19.885Z,21.30
2018-08-23T18:13:48.282Z,21.50
2018-08-23T18:16:21.888Z,21.50
2018-08-23T18:18:50.203Z,21.50
2018-08-23T18:21:18.481Z,21.10
2018-08-23T18:23:46.932Z,21.20
2018-08-23T18:26:15.299Z,21.10
2018-08-23T18:28:43.595Z,21.00
2018-08-23T18:31:11.939Z,21.00
2018-08-23T18:33:40.452Z,20.90
2018-08-23T18:36:08.673Z,20.90
2018-08-23T18:38:37.225Z,20.80
2018-08-23T18:41:05.533Z,20.90
2018-08-23T18:43:33.729Z,20.70
2018-08-23T18:46:02.745Z,20.70
2018-08-23T18:48:31.109Z,20.70
2018-08-23T18:50:59.530Z,20.60
2018-08-23T18:53:27.923Z,20.50
2018-08-23T18:55:56.349Z,20.50
2018-08-23T18:58:25.012Z,20.40
2018-08-23T19:00:54.259Z,20.30
2018-08-23T19:03:22.393Z,20.30
2018-08-23T19:05:50.754Z,20.20
2018-08-23T19:08:19.080Z,20.20
2018-08-23T19:10:47.425Z,20.30
2018-08-23T19:13:15.847Z,20.30
2018-08-23T19:15:49.623Z,20.20
2018-08-23T19:18:18.132Z,20.30
2018-08-23T19:20:46.366Z,20.20
2018-08-23T19:23:15.016Z,20.20
2018-08-23T19:25:43.550Z,20.00
2018-08-23T19:28:11.926Z,19.90
2018-08-23T19:30:40.276Z,19.90
2018-08-23T19:33:08.757Z,20.00
2018-08-23T19:35:36.948Z,20.10
2018-08-23T19:38:05.615Z,19.90
2018-08-23T19:43:02.645Z,19.90
2018-08-23T19:45:36.479Z,19.80
2018-08-23T19:48:05.178Z,19.50
2018-08-23T19:50:33.558Z,19.80
2018-08-23T19:53:02.052Z,19.70
2018-08-23T19:55:33.973Z,19.70
2018-08-23T19:58:05.443Z,19.60
2018-08-23T20:03:04.553Z,19.70
2018-08-23T20:05:33.044Z,19.80
2018-08-23T20:08:01.579Z,19.60
2018-08-23T20:10:30.107Z,19.30
2018-08-23T20:12:58.605Z,19.70
2018-08-23T20:20:24.574Z,19.60
2018-08-23T20:22:52.991Z,19.60
2018-08-23T20:25:21.479Z,19.60
2018-08-23T20:27:49.920Z,19.30
2018-08-23T20:30:18.334Z,19.40
2018-08-23T20:35:15.378Z,19.70
2018-08-23T20:37:43.899Z,19.70
2018-08-23T20:40:12.803Z,19.60
2018-08-23T20:42:41.274Z,19.20
2018-08-23T20:45:09.741Z,19.70
2018-08-23T20:47:38.217Z,19.60
2018-08-23T20:55:02.949Z,19.70
2018-08-23T20:57:31.347Z,19.70
2018-08-23T21:02:28.049Z,19.70
2018-08-23T21:04:56.480Z,19.70
2018-08-23T21:07:25.036Z,19.30
2018-08-23T21:09:53.501Z,19.90
2018-08-23T21:12:21.910Z,19.80
2018-08-23T21:14:50.369Z,19.70
2018-08-23T21:17:18.769Z,19.80
2018-08-23T21:19:47.096Z,19.30
2018-08-23T21:22:17.872Z,19.60
2018-08-23T21:24:46.497Z,19.90
2018-08-23T21:27:14.867Z,19.70
2018-08-23T21:29:43.225Z,19.60
2018-08-23T21:34:39.798Z,19.60
2018-08-23T21:37:08.021Z,19.60
2018-08-23T21:39:36.181Z,19.90
2018-08-23T21:42:04.669Z,19.70
2018-08-23T21:44:33.210Z,19.70
2018-08-23T21:47:01.668Z,19.40
2018-08-23T21:49:29.941Z,19.90
2018-08-23T21:51:58.145Z,19.70
2018-08-23T21:54:26.594Z,20.40
2018-08-23T21:56:55.001Z,19.70
2018-08-23T21:59:23.467Z,19.70
2018-08-23T22:01:56.097Z,20.30
2018-08-23T22:04:24.610Z,19.80
2018-08-23T22:09:21.249Z,19.80
2018-08-23T22:11:49.777Z,19.30
2018-08-23T22:14:18.208Z,20.00
2018-08-23T22:16:46.681Z,19.20
2018-08-23T22:19:15.161Z,19.40
2018-08-23T22:24:11.804Z,19.20
2018-08-23T22:26:40.075Z,19.20
2018-08-23T22:29:08.201Z,19.20
2018-08-23T22:31:36.356Z,19.20
2018-08-23T22:34:04.931Z,19.30
2018-08-23T22:36:33.524Z,19.20
2018-08-23T22:39:02.035Z,19.20
2018-08-23T22:41:30.513Z,19.20
2018-08-23T22:43:58.965Z,19.30
2018-08-23T22:46:27.346Z,19.30
2018-08-23T22:48:55.842Z,19.50
2018-08-23T22:51:24.304Z,19.50
2018-08-23T22:53:52.858Z,19.70
2018-08-23T22:56:21.361Z,19.10
2018-08-23T22:58:49.794Z,19.30
2018-08-23T23:01:18.288Z,19.30
2018-08-23T23:03:52.116Z,19.30
2018-08-23T23:06:20.614Z,19.20
2018-08-23T23:08:49.170Z,19.30
2018-08-23T23:11:17.626Z,19.30
2018-08-23T23:13:45.831Z,19.50
2018-08-23T23:16:14.373Z,18.80
2018-08-23T23:18:42.836Z,19.20
2018-08-23T23:21:11.295Z,19.10
2018-08-23T23:23:39.854Z,18.70
2018-08-23T23:26:08.374Z,19.60
2018-08-23T23:28:37.679Z,19.00
2018-08-23T23:31:06.137Z,18.90
2018-08-23T23:33:34.622Z,19.10
2018-08-23T23:36:03.030Z,18.90
2018-08-23T23:38:31.439Z,18.60
2018-08-23T23:40:59.860Z,18.50
2018-08-23T23:43:28.366Z,18.80
2018-08-23T23:45:56.877Z,18.80
2018-08-23T23:48:25.359Z,18.80
2018-08-23T23:50:53.877Z,18.90
2018-08-23T23:53:22.195Z,18.90
2018-08-23T23:55:50.740Z,18.70
2018-08-23T23:58:19.234Z,18.30
